Time;durP1;ratioP1;P1;durP2;ratioP2;P2;SDS_P1;SDS_P2;PMS_P1;PMS_P2;Temp;Humidity;BMP_temperature;BMP_pressure;BME280_temperature;BME280_humidity;BME280_pressure;Samples;Min_cycle;Max_cycle;Signal;HPM_P1;HPM_P2
2024/01/24 00:01:10;;;;;;;14.60;4.03;;;12.80;1.00;;;;;;6187951;23;20174;-85
2024/01/24 00:03:36;;;;;;;8.43;3.43;;;12.80;1.00;;;;;;6186670;23;20292;-85
2024/01/24 00:06:01;;;;;;;11.10;3.97;;;12.80;1.00;;;;;;6185465;23;20159;-83
2024/01/24 00:08:27;;;;;;;10.80;3.30;;;12.80;1.00;;;;;;6184680;23;20166;-84
2024/01/24 00:10:53;;;;;;;11.37;3.80;;;12.80;1.00;;;;;;6184280;23;20174;-84
2024/01/24 00:13:19;;;;;;;8.70;3.30;;;12.80;1.00;;;;;;6184862;23;20912;-85
2024/01/24 00:15:44;;;;;;;5.33;3.00;;;12.90;1.00;;;;;;6183928;23;20748;-84
2024/01/24 00:18:10;;;;;;;6.23;3.70;;;12.90;1.00;;;;;;6184761;23;20183;-84
2024/01/24 00:20:35;;;;;;;9.40;3.07;;;12.90;1.00;;;;;;6184688;23;20489;-83
2024/01/24 00:23:01;;;;;;;9.00;3.90;;;12.90;1.00;;;;;;6185022;23;20900;-83
2024/01/24 00:25:26;;;;;;;7.03;3.30;;;12.90;1.00;;;;;;6185184;23;20158;-86
2024/01/24 00:27:52;;;;;;;9.00;2.73;;;12.90;1.00;;;;;;6184573;23;20507;-85
2024/01/24 00:30:17;;;;;;;9.97;3.90;;;13.00;1.00;;;;;;6183514;23;20159;-85
2024/01/24 00:32:43;;;;;;;10.90;3.33;;;13.00;1.00;;;;;;6184002;23;20154;-85
2024/01/24 00:35:08;;;;;;;6.30;3.13;;;13.00;1.00;;;;;;6184490;23;20528;-84
2024/01/24 00:37:34;;;;;;;7.40;2.80;;;13.00;1.00;;;;;;6183706;23;20225;-85
2024/01/24 00:39:59;;;;;;;8.17;3.00;;;13.00;1.00;;;;;;6183488;23;20151;-85
2024/01/24 00:42:25;;;;;;;10.10;3.93;;;13.10;1.00;;;;;;6181177;23;20202;-85
2024/01/24 00:44:51;;;;;;;5.60;2.97;;;13.10;1.00;;;;;;6184181;23;20155;-84
2024/01/24 00:47:19;;;;;;;8.00;2.97;;;13.10;1.00;;;;;;6185007;23;20547;-85
2024/01/24 00:49:44;;;;;;;6.90;2.80;;;13.20;1.00;;;;;;6185109;23;20405;-84
2024/01/24 00:52:09;;;;;;;10.13;2.87;;;13.20;1.00;;;;;;6184290;23;20405;-84
2024/01/24 00:54:35;;;;;;;6.13;2.30;;;13.20;1.00;;;;;;6187827;23;20166;-85
2024/01/24 00:57:00;;;;;;;8.27;2.67;;;13.30;1.00;;;;;;6187329;23;20291;-85
2024/01/24 00:59:26;;;;;;;18.90;3.10;;;13.30;1.00;;;;;;6187357;23;20151;-85
2024/01/24 01:01:51;;;;;;;9.20;2.67;;;13.30;1.00;;;;;;6185745;23;20181;-85
2024/01/24 01:04:17;;;;;;;7.53;2.73;;;13.40;1.00;;;;;;6185741;23;20151;-87
2024/01/24 01:06:43;;;;;;;6.40;3.50;;;13.40;1.00;;;;;;6182841;23;20356;-83
2024/01/24 01:09:08;;;;;;;3.13;2.20;;;13.40;1.00;;;;;;6182188;23;20154;-83
2024/01/24 01:11:33;;;;;;;4.67;2.10;;;13.50;1.00;;;;;;6182998;23;20170;-84
2024/01/24 01:13:59;;;;;;;4.50;2.13;;;13.50;1.00;;;;;;6184523;23;20151;-87
2024/01/24 01:16:25;;;;;;;3.53;2.13;;;13.50;1.00;;;;;;6183154;23;20171;-83
2024/01/24 01:18:50;;;;;;;6.10;2.87;;;13.50;1.00;;;;;;6184091;23;20625;-82
2024/01/24 01:21:16;;;;;;;4.60;2.37;;;13.60;1.00;;;;;;6183511;23;20182;-83
2024/01/24 01:23:41;;;;;;;4.33;2.13;;;13.60;1.00;;;;;;6185530;23;20158;-83
2024/01/24 01:26:07;;;;;;;4.43;1.87;;;13.60;1.00;;;;;;6186262;23;20151;-85
2024/01/24 01:28:32;;;;;;;4.70;1.67;;;13.60;1.00;;;;;;6182949;23;20241;-84
2024/01/24 01:30:58;;;;;;;3.73;1.87;;;13.70;99.90;;;;;;6183207;23;20192;-84
2024/01/24 01:33:24;;;;;;;5.80;2.00;;;13.70;99.90;;;;;;6187509;23;20162;-84
2024/01/24 01:35:49;;;;;;;4.53;1.90;;;13.80;99.90;;;;;;6186958;23;20161;-84
2024/01/24 01:38:15;;;;;;;3.30;1.60;;;13.80;99.90;;;;;;6183212;23;20521;-84
2024/01/24 01:40:40;;;;;;;3.80;1.67;;;13.80;99.90;;;;;;6185785;23;20182;-83
2024/01/24 01:43:16;;;;;;;6.83;2.33;;;13.80;99.90;;;;;;6181507;23;20151;-84
2024/01/24 01:45:42;;;;;;;3.47;1.87;;;13.80;99.90;;;;;;6182465;23;20186;-84
2024/01/24 01:48:11;;;;;;;3.63;1.53;;;13.80;99.90;;;;;;6178787;23;20393;-83
2024/01/24 01:50:38;;;;;;;5.60;1.60;;;13.80;99.90;;;;;;6179456;23;20932;-84
2024/01/24 01:53:05;;;;;;;5.30;1.77;;;13.80;99.90;;;;;;6179631;23;20417;-83
2024/01/24 01:55:32;;;;;;;3.43;1.67;;;13.80;99.90;;;;;;6182000;23;20908;-81
2024/01/24 01:57:58;;;;;;;2.63;1.80;;;13.80;99.90;;;;;;6180558;23;20426;-86
2024/01/24 02:00:25;;;;;;;2.80;1.13;;;13.80;99.90;;;;;;6181772;23;20385;-84
2024/01/24 02:02:51;;;;;;;4.10;2.07;;;13.80;99.90;;;;;;6180936;23;20366;-86
2024/01/24 02:05:16;;;;;;;3.47;1.47;;;13.80;99.90;;;;;;6180654;23;20473;-84
2024/01/24 02:07:43;;;;;;;2.77;1.37;;;13.80;99.90;;;;;;6179666;23;20178;-85
2024/01/24 02:10:13;;;;;;;2.37;1.50;;;13.90;99.90;;;;;;6181244;23;20166;-85
2024/01/24 02:12:39;;;;;;;3.33;1.33;;;13.90;99.90;;;;;;6181227;23;21161;-86
2024/01/24 02:15:06;;;;;;;3.30;1.50;;;14.00;99.90;;;;;;6181158;23;20374;-84
2024/01/24 02:17:31;;;;;;;3.93;1.73;;;14.00;99.90;;;;;;6180081;23;20179;-84
2024/01/24 02:19:57;;;;;;;2.23;1.50;;;14.00;91.80;;;;;;6181561;23;20786;-84
2024/01/24 02:22:22;;;;;;;3.63;1.60;;;14.00;99.90;;;;;;6179588;23;20190;-84
2024/01/24 02:24:48;;;;;;;5.13;1.27;;;14.00;89.10;;;;;;6181688;23;20155;-84
2024/01/24 02:27:13;;;;;;;3.57;1.63;;;14.00;93.80;;;;;;6184419;23;20155;-84
2024/01/24 02:29:39;;;;;;;1.90;1.30;;;14.00;49.90;;;;;;6187129;23;20190;-83
2024/01/24 02:32:05;;;;;;;5.13;1.63;;;14.00;97.20;;;;;;6186251;23;20178;-84
2024/01/24 02:34:31;;;;;;;2.00;1.33;;;14.00;99.90;;;;;;6187641;23;20151;-84
2024/01/24 02:36:56;;;;;;;1.40;1.20;;;14.00;99.90;;;;;;6185466;23;20397;-85
2024/01/24 02:39:22;;;;;;;2.30;1.37;;;14.00;99.90;;;;;;6185990;23;20200;-85
2024/01/24 02:41:47;;;;;;;3.03;1.40;;;14.00;99.90;;;;;;6186802;23;20171;-85
2024/01/24 02:44:13;;;;;;;4.50;1.57;;;14.00;99.90;;;;;;6187284;23;20153;-84
2024/01/24 02:46:39;;;;;;;1.57;1.43;;;14.00;99.90;;;;;;6184918;23;20228;-84
2024/01/24 02:49:04;;;;;;;2.03;1.00;;;14.00;99.90;;;;;;6184059;23;20748;-84
2024/01/24 02:51:30;;;;;;;2.63;1.27;;;14.00;99.90;;;;;;6187711;23;21036;-83
2024/01/24 02:53:56;;;;;;;2.27;1.23;;;14.00;99.90;;;;;;6185831;23;20480;-85
2024/01/24 02:56:21;;;;;;;3.40;1.30;;;13.90;99.90;;;;;;6183623;23;20297;-84
2024/01/24 02:58:47;;;;;;;2.30;1.10;;;13.90;1.00;;;;;;6187015;23;20182;-84
2024/01/24 03:01:14;;;;;;;2.03;1.03;;;13.90;1.00;;;;;;6184271;23;20171;-85
2024/01/24 03:03:40;;;;;;;2.17;0.90;;;13.80;1.00;;;;;;6184791;23;20384;-85
2024/01/24 03:06:06;;;;;;;2.63;0.97;;;13.80;1.00;;;;;;6185569;23;20489;-83
2024/01/24 03:08:51;;;;;;;1.83;0.90;;;13.70;1.00;;;;;;6184507;23;20748;-86
2024/01/24 03:11:17;;;;;;;1.40;1.00;;;13.70;1.00;;;;;;6184152;23;20266;-83
2024/01/24 03:13:42;;;;;;;3.37;0.90;;;13.70;1.00;;;;;;6177747;23;20410;-84
2024/01/24 03:16:08;;;;;;;2.70;1.13;;;13.70;1.00;;;;;;6181407;23;20162;-85
2024/01/24 03:18:38;;;;;;;2.50;1.17;;;13.70;1.00;;;;;;6179572;23;20180;-85
2024/01/24 03:21:08;;;;;;;1.20;0.80;;;13.70;1.00;;;;;;6180327;23;20488;-84
2024/01/24 03:23:37;;;;;;;2.33;1.03;;;13.60;1.00;;;;;;6178338;23;20370;-86
2024/01/24 03:26:03;;;;;;;2.30;0.93;;;13.60;1.00;;;;;;6179850;23;20382;-83
2024/01/24 03:28:28;;;;;;;2.13;0.90;;;13.60;1.00;;;;;;6180628;23;20444;-87
2024/01/24 03:30:54;;;;;;;1.50;1.10;;;13.50;1.00;;;;;;6182597;23;20174;-84
2024/01/24 03:33:21;;;;;;;1.63;1.07;;;13.50;1.00;;;;;;6182062;23;20150;-84
2024/01/24 03:35:46;;;;;;;1.67;1.10;;;13.40;1.00;;;;;;6181190;23;20378;-85
2024/01/24 03:38:12;;;;;;;1.70;1.00;;;13.40;1.00;;;;;;6181107;23;20515;-85
2024/01/24 03:40:37;;;;;;;3.13;0.97;;;13.40;1.00;;;;;;6179046;23;20299;-83
2024/01/24 03:43:03;;;;;;;2.97;1.37;;;13.30;1.00;;;;;;6181471;23;20158;-84
2024/01/24 03:45:29;;;;;;;2.33;1.50;;;13.30;1.00;;;;;;6181281;23;20453;-85
2024/01/24 03:47:54;;;;;;;5.50;1.73;;;13.20;13.60;;;;;;6178745;23;20368;-84
2024/01/24 03:50:20;;;;;;;2.40;1.20;;;13.10;23.10;;;;;;6181684;23;20166;-85
2024/01/24 03:52:45;;;;;;;2.40;1.13;;;13.10;30.10;;;;;;6178380;23;20158;-83
2024/01/24 03:55:11;;;;;;;1.50;1.40;;;13.10;35.80;;;;;;6177947;23;20163;-84
2024/01/24 03:57:36;;;;;;;1.90;1.00;;;13.00;38.50;;;;;;6179318;23;20950;-85
2024/01/24 04:00:05;;;;;;;2.10;1.17;;;13.00;39.60;;;;;;6184936;23;20151;-84
2024/01/24 04:02:30;;;;;;;2.90;1.10;;;13.00;39.70;;;;;;6185931;23;20171;-84
2024/01/24 04:04:56;;;;;;;2.67;1.33;;;13.00;39.50;;;;;;6186038;23;20469;-85
2024/01/24 04:07:21;;;;;;;1.30;0.90;;;13.10;39.40;;;;;;6184134;23;20315;-84
2024/01/24 04:09:47;;;;;;;1.77;0.73;;;13.10;37.20;;;;;;6184124;23;20189;-85
2024/01/24 04:12:12;;;;;;;1.30;0.80;;;13.10;36.20;;;;;;6183543;23;20183;-85
2024/01/24 04:14:38;;;;;;;1.10;0.70;;;13.10;30.00;;;;;;6182846;23;20166;-85
2024/01/24 04:17:04;;;;;;;1.40;1.00;;;13.10;13.40;;;;;;6186612;23;20209;-85
2024/01/24 04:19:29;;;;;;;1.50;0.73;;;13.20;1.00;;;;;;6184931;23;20185;-85
2024/01/24 04:21:55;;;;;;;1.40;0.80;;;13.30;1.00;;;;;;6185354;23;20199;-86
2024/01/24 04:24:21;;;;;;;1.20;0.80;;;13.30;1.00;;;;;;6181490;23;20754;-85
2024/01/24 04:26:46;;;;;;;1.20;0.80;;;13.30;1.00;;;;;;6182121;23;20166;-83
2024/01/24 04:29:12;;;;;;;1.07;0.70;;;13.30;1.00;;;;;;6185156;23;20594;-85
2024/01/24 04:31:37;;;;;;;2.73;0.80;;;13.30;1.00;;;;;;6184713;23;20183;-83
2024/01/24 04:34:03;;;;;;;1.10;0.70;;;13.30;1.00;;;;;;6184564;23;20161;-83
2024/01/24 04:36:28;;;;;;;1.03;0.80;;;13.30;1.00;;;;;;6183205;23;20182;-85
2024/01/24 04:38:54;;;;;;;0.90;0.63;;;13.30;1.00;;;;;;6184117;23;20260;-84
2024/01/24 04:41:19;;;;;;;1.10;0.80;;;13.30;1.00;;;;;;6183006;23;20178;-85
2024/01/24 04:43:45;;;;;;;2.20;0.70;;;13.30;1.00;;;;;;6183865;23;20154;-84
2024/01/24 04:46:16;;;;;;;3.30;0.63;;;13.30;1.00;;;;;;6181504;23;20151;-83
2024/01/24 04:48:43;;;;;;;1.63;0.80;;;13.30;1.00;;;;;;6181991;23;20159;-84
2024/01/24 04:51:09;;;;;;;1.00;0.60;;;13.30;1.00;;;;;;6181189;23;20414;-85
2024/01/24 04:53:35;;;;;;;2.00;0.70;;;13.30;1.00;;;;;;6181604;23;20375;-85
2024/01/24 04:56:01;;;;;;;1.40;0.63;;;13.30;1.00;;;;;;6179158;23;20736;-84
2024/01/24 04:58:26;;;;;;;1.07;0.63;;;13.20;1.00;;;;;;6180198;23;20426;-83
2024/01/24 05:00:52;;;;;;;1.97;1.40;;;13.20;1.00;;;;;;6183904;23;20181;-85
2024/01/24 05:03:18;;;;;;;0.90;0.50;;;13.20;1.00;;;;;;6182062;23;20234;-84
2024/01/24 05:05:43;;;;;;;1.43;0.77;;;13.30;1.00;;;;;;6180653;23;20155;-86
2024/01/24 05:08:09;;;;;;;2.97;0.70;;;13.30;1.00;;;;;;6179273;23;20150;-84
2024/01/24 05:10:34;;;;;;;1.50;0.60;;;13.30;1.00;;;;;;6179325;23;20260;-84
2024/01/24 05:12:59;;;;;;;1.30;0.70;;;13.30;1.00;;;;;;6179815;23;20540;-85
2024/01/24 05:15:25;;;;;;;1.80;0.70;;;13.40;1.00;;;;;;6182694;23;20234;-83
2024/01/24 05:17:50;;;;;;;1.10;0.67;;;13.40;1.00;;;;;;6179561;23;20269;-83
2024/01/24 05:20:17;;;;;;;2.53;0.80;;;13.40;1.00;;;;;;6180224;23;20598;-85
2024/01/24 05:22:43;;;;;;;2.33;0.70;;;13.40;1.00;;;;;;6179249;23;20515;-86
2024/01/24 05:25:09;;;;;;;1.40;0.70;;;13.40;1.00;;;;;;6182157;23;20417;-84
2024/01/24 05:27:35;;;;;;;2.47;0.80;;;13.40;1.00;;;;;;6179128;23;20374;-83
2024/01/24 05:30:01;;;;;;;1.20;0.70;;;13.40;1.00;;;;;;6181515;23;20516;-85
2024/01/24 05:32:26;;;;;;;1.10;0.70;;;13.40;1.00;;;;;;6190818;23;20791;-84
2024/01/24 05:34:52;;;;;;;2.73;0.90;;;13.40;1.00;;;;;;6189231;23;20170;-82
2024/01/24 05:37:17;;;;;;;3.93;1.20;;;13.30;1.00;;;;;;6190872;23;20191;-84
2024/01/24 05:39:43;;;;;;;4.80;1.53;;;13.30;22.90;;;;;;6189408;23;20176;-84
2024/01/24 05:42:09;;;;;;;9.03;2.70;;;13.30;27.70;;;;;;6189281;23;20175;-85
2024/01/24 05:44:34;;;;;;;10.73;2.80;;;13.30;1.00;;;;;;6188892;23;20174;-85
2024/01/24 05:47:00;;;;;;;3.63;1.77;;;13.20;99.90;;;;;;6191041;23;20242;-84
2024/01/24 05:49:26;;;;;;;10.00;1.77;;;13.20;99.90;;;;;;6193555;23;20166;-85
2024/01/24 05:51:52;;;;;;;12.80;2.37;;;13.20;1.00;;;;;;6188013;23;20394;-86
2024/01/24 05:54:17;;;;;;;9.07;2.53;;;13.20;1.00;;;;;;6187272;23;20239;-84
2024/01/24 05:56:43;;;;;;;8.17;2.47;;;13.10;99.90;;;;;;6183377;23;20155;-83
2024/01/24 05:59:09;;;;;;;14.70;3.70;;;13.10;99.90;;;;;;6188883;23;20165;-86
2024/01/24 06:01:34;;;;;;;15.23;5.60;;;13.10;1.00;;;;;;6187204;23;20190;-85
2024/01/24 06:04:00;;;;;;;11.60;3.70;;;13.00;99.90;;;;;;6188510;23;20370;-84
2024/01/24 06:06:25;;;;;;;15.70;3.37;;;13.00;99.90;;;;;;6188689;23;20151;-84
2024/01/24 06:08:51;;;;;;;10.90;3.20;;;13.00;1.00;;;;;;6186477;23;20181;-84
2024/01/24 06:11:17;;;;;;;9.23;2.70;;;13.00;1.00;;;;;;6187350;23;20195;-85
2024/01/24 06:13:43;;;;;;;7.10;2.23;;;12.90;1.00;;;;;;6185231;23;20205;-84
2024/01/24 06:16:08;;;;;;;10.80;3.97;;;13.00;19.10;;;;;;6185858;23;21057;-84
2024/01/24 06:18:34;;;;;;;14.10;3.00;;;12.90;94.80;;;;;;6188347;23;20216;-84
2024/01/24 06:20:59;;;;;;;14.17;3.00;;;13.00;94.60;;;;;;6185276;23;20282;-86
2024/01/24 06:23:28;;;;;;;20.63;4.20;;;12.90;1.00;;;;;;6184663;23;20204;-86
2024/01/24 06:25:53;;;;;;;19.27;4.13;;;12.90;1.00;;;;;;6188924;23;20172;-85
2024/01/24 06:28:19;;;;;;;17.73;3.70;;;12.90;1.00;;;;;;6192062;23;20378;-83
2024/01/24 06:30:45;;;;;;;22.77;4.80;;;12.90;1.00;;;;;;6189837;23;20580;-85
2024/01/24 06:33:12;;;;;;;12.50;3.70;;;12.90;99.90;;;;;;6191539;23;20183;-85
2024/01/24 06:35:42;;;;;;;18.67;3.83;;;12.90;99.90;;;;;;6190522;23;20603;-87
2024/01/24 06:38:11;;;;;;;18.63;4.40;;;12.80;99.90;;;;;;6191639;23;20417;-86
2024/01/24 06:40:36;;;;;;;36.17;5.27;;;12.80;99.90;;;;;;6191685;23;20394;-87
2024/01/24 06:43:02;;;;;;;18.40;4.13;;;12.80;99.90;;;;;;6192290;23;20950;-86
2024/01/24 06:45:28;;;;;;;22.40;4.00;;;12.70;99.90;;;;;;6189857;23;20147;-85
2024/01/24 06:48:08;;;;;;;21.50;5.20;;;12.70;99.90;;;;;;6188487;23;20246;-85
2024/01/24 06:50:34;;;;;;;23.70;4.70;;;12.70;99.90;;;;;;6187593;23;20771;-86
2024/01/24 06:52:59;;;;;;;23.30;4.90;;;12.70;99.90;;;;;;6186875;23;20402;-86
2024/01/24 06:55:25;;;;;;;22.77;5.50;;;12.60;99.90;;;;;;6186577;23;20158;-86
2024/01/24 06:57:51;;;;;;;15.77;4.30;;;12.60;99.90;;;;;;6184789;23;20645;-87
2024/01/24 07:00:18;;;;;;;21.10;4.33;;;12.60;99.90;;;;;;6185320;23;20245;-85
2024/01/24 07:02:44;;;;;;;23.90;5.60;;;12.60;99.90;;;;;;6185376;23;20179;-86
2024/01/24 07:05:13;;;;;;;20.53;5.23;;;12.50;99.90;;;;;;6183140;23;20822;-86
2024/01/24 07:07:44;;;;;;;27.70;6.40;;;12.50;99.90;;;;;;6183542;23;20390;-86
2024/01/24 07:10:11;;;;;;;21.87;5.50;;;12.50;99.90;;;;;;6181510;23;20386;-86
2024/01/24 07:12:39;;;;;;;21.47;4.53;;;12.50;99.90;;;;;;6183435;23;20399;-86
2024/01/24 07:15:05;;;;;;;21.87;4.87;;;12.50;99.90;;;;;;6181617;23;20390;-86
2024/01/24 07:17:34;;;;;;;22.00;6.30;;;12.50;99.90;;;;;;6183864;23;20417;-85
2024/01/24 07:20:00;;;;;;;20.47;4.53;;;12.50;99.90;;;;;;6183442;23;20923;-84
2024/01/24 07:22:25;;;;;;;22.80;5.60;;;12.50;99.90;;;;;;6182941;23;20407;-84
2024/01/24 07:24:51;;;;;;;23.00;4.70;;;12.50;99.90;;;;;;6184540;23;20370;-85
2024/01/24 07:27:20;;;;;;;21.13;4.20;;;12.60;99.90;;;;;;6182393;23;20741;-85
2024/01/24 07:29:45;;;;;;;31.20;5.67;;;12.60;99.90;;;;;;6186663;23;20901;-85
2024/01/24 07:32:18;;;;;;;16.40;5.53;;;12.60;99.90;;;;;;6184830;23;20377;-84
2024/01/24 07:34:47;;;;;;;19.30;4.50;;;12.60;99.90;;;;;;6182331;23;20155;-86
2024/01/24 07:37:15;;;;;;;25.30;6.17;;;12.60;99.90;;;;;;6183060;23;20500;-84
2024/01/24 07:39:43;;;;;;;21.47;5.23;;;12.60;99.90;;;;;;6187340;23;20394;-85
2024/01/24 07:42:11;;;;;;;24.43;4.93;;;12.60;99.90;;;;;;6186209;23;20374;-84
2024/01/24 07:44:37;;;;;;;28.87;5.83;;;12.60;99.90;;;;;;6183747;23;20386;-87
2024/01/24 07:47:04;;;;;;;21.90;5.80;;;12.60;99.90;;;;;;6186438;23;20378;-84
2024/01/24 07:49:33;;;;;;;24.13;6.20;;;12.50;1.00;;;;;;6182872;23;20161;-85
2024/01/24 07:52:02;;;;;;;24.57;5.27;;;12.50;1.00;;;;;;6182357;23;20386;-86
2024/01/24 07:54:35;;;;;;;31.00;6.60;;;12.50;99.90;;;;;;6180559;23;20394;-85
2024/01/24 07:57:03;;;;;;;28.00;6.80;;;12.50;99.90;;;;;;6180461;23;20377;-83
2024/01/24 07:59:31;;;;;;;22.37;5.73;;;12.50;99.90;;;;;;6181830;23;20390;-83
2024/01/24 08:01:57;;;;;;;21.13;5.50;;;12.60;98.90;;;;;;6180062;23;20609;-85
2024/01/24 08:04:23;;;;;;;21.60;5.93;;;12.60;1.00;;;;;;6181762;23;20469;-86
2024/01/24 08:06:51;;;;;;;26.90;6.43;;;12.50;32.30;;;;;;6181347;23;20159;-85
2024/01/24 08:09:20;;;;;;;22.90;5.20;;;12.50;99.90;;;;;;6181015;23;20910;-85
2024/01/24 08:11:45;;;;;;;30.37;5.90;;;12.50;1.00;;;;;;6181806;23;20386;-86
2024/01/24 08:14:14;;;;;;;20.13;4.97;;;12.60;1.00;;;;;;6179829;23;20402;-86
2024/01/24 08:17:02;;;;;;;24.87;5.53;;;12.70;99.90;;;;;;6181964;23;20226;-85
2024/01/24 08:19:30;;;;;;;33.80;6.43;;;12.70;99.90;;;;;;6178771;23;20394;-85
2024/01/24 08:21:58;;;;;;;28.03;6.77;;;12.60;99.90;;;;;;6181884;23;20358;-86
2024/01/24 08:24:26;;;;;;;30.97;6.77;;;12.60;99.90;;;;;;6181905;23;20496;-86
2024/01/24 08:26:52;;;;;;;44.97;15.60;;;12.60;1.00;;;;;;6180360;23;20382;-87
2024/01/24 08:29:25;;;;;;;38.87;8.83;;;12.50;1.00;;;;;;6183469;23;20465;-86
2024/01/24 08:31:51;;;;;;;39.20;10.53;;;12.40;1.00;;;;;;6181504;23;20154;-85
2024/01/24 08:34:20;;;;;;;59.37;21.57;;;12.40;1.00;;;;;;6185072;23;20409;-85
2024/01/24 08:36:46;;;;;;;36.97;13.10;;;12.40;1.00;;;;;;6184541;23;20403;-86
2024/01/24 08:39:11;;;;;;;38.00;11.73;;;12.40;6.00;;;;;;6183449;23;20426;-85
2024/01/24 08:41:37;;;;;;;32.13;8.43;;;12.30;1.00;;;;;;6187524;23;20230;-85
2024/01/24 08:44:04;;;;;;;25.40;6.17;;;12.30;1.00;;;;;;6186846;23;20181;-85
2024/01/24 08:46:32;;;;;;;22.20;6.50;;;12.40;1.00;;;;;;6186906;23;20229;-86
2024/01/24 08:48:58;;;;;;;21.63;6.33;;;12.50;99.90;;;;;;6183284;23;20396;-86
2024/01/24 08:51:31;;;;;;;30.53;7.10;;;12.60;99.90;;;;;;6184863;23;20398;-85
2024/01/24 08:53:59;;;;;;;22.27;6.10;;;12.60;95.80;;;;;;6184116;23;20617;-86
2024/01/24 08:56:25;;;;;;;23.40;6.20;;;12.60;28.60;;;;;;6185959;23;20468;-85
2024/01/24 08:58:50;;;;;;;28.60;5.73;;;12.70;2.80;;;;;;6183403;23;20433;-86
2024/01/24 09:01:17;;;;;;;24.87;6.50;;;12.80;1.00;;;;;;6184474;23;20174;-84
2024/01/24 09:03:42;;;;;;;26.00;6.20;;;12.80;1.00;;;;;;6183394;23;20216;-87
2024/01/24 09:06:11;;;;;;;34.60;6.57;;;12.80;1.00;;;;;;6184052;23;20710;-84
2024/01/24 09:08:36;;;;;;;23.83;5.80;;;13.00;1.00;;;;;;6185755;23;20163;-84
2024/01/24 09:11:02;;;;;;;35.67;6.77;;;13.00;1.00;;;;;;6186899;23;20389;-84
2024/01/24 09:13:30;;;;;;;35.40;6.10;;;13.00;1.00;;;;;;6185859;23;20186;-83
2024/01/24 09:15:56;;;;;;;25.47;6.57;;;13.20;1.00;;;;;;6186209;23;20155;-85
2024/01/24 09:18:21;;;;;;;35.27;6.47;;;13.10;1.00;;;;;;6190892;23;20554;-85
2024/01/24 09:20:47;;;;;;;22.37;6.67;;;13.10;1.00;;;;;;6196531;23;20789;-85
2024/01/24 09:23:13;;;;;;;29.53;5.83;;;13.10;1.00;;;;;;6195859;23;20212;-85
2024/01/24 09:25:38;;;;;;;21.97;5.60;;;13.30;1.00;;;;;;6197553;23;20151;-84
2024/01/24 09:28:08;;;;;;;33.17;5.80;;;13.40;1.00;;;;;;6197284;23;20202;-83
2024/01/24 09:30:43;;;;;;;31.57;6.90;;;13.30;1.00;;;;;;6194316;23;20238;-83
2024/01/24 09:33:09;;;;;;;32.63;5.80;;;13.20;1.00;;;;;;6191835;23;20725;-85
2024/01/24 09:35:35;;;;;;;36.13;7.20;;;13.20;1.00;;;;;;6193154;23;20398;-84
2024/01/24 09:38:00;;;;;;;29.93;6.70;;;13.10;1.00;;;;;;6193681;23;20410;-87
2024/01/24 09:40:28;;;;;;;32.17;6.40;;;13.10;1.00;;;;;;6194750;23;20159;-84
2024/01/24 09:43:08;;;;;;;33.23;8.53;;;13.20;1.00;;;;;;6192954;23;20175;-83
2024/01/24 09:45:42;;;;;;;21.77;6.20;;;13.30;1.00;;;;;;6191393;23;20374;-85
2024/01/24 09:48:13;;;;;;;25.30;5.87;;;13.30;1.00;;;;;;6193741;23;20366;-83
2024/01/24 09:50:51;;;;;;;31.13;7.23;;;13.40;1.00;;;;;;6191894;23;20465;-85
2024/01/24 09:53:26;;;;;;;30.70;7.93;;;13.40;1.00;;;;;;6191484;23;20441;-84
2024/01/24 09:56:00;;;;;;;27.47;6.50;;;13.50;1.00;;;;;;6190877;23;20792;-86
2024/01/24 09:58:37;;;;;;;28.47;5.97;;;13.60;1.00;;;;;;6191325;23;20441;-84
2024/01/24 10:01:10;;;;;;;39.03;8.77;;;13.70;1.00;;;;;;6189806;23;20416;-84
2024/01/24 10:03:49;;;;;;;32.77;7.30;;;13.80;1.00;;;;;;6190005;23;20749;-84
2024/01/24 10:06:16;;;;;;;32.87;5.80;;;13.80;1.00;;;;;;6186864;23;20362;-84
2024/01/24 10:08:47;;;;;;;25.27;6.57;;;13.70;1.00;;;;;;6183773;23;20418;-84
2024/01/24 10:11:21;;;;;;;27.27;7.80;;;13.70;1.00;;;;;;6186868;23;20490;-87
2024/01/24 10:13:46;;;;;;;20.57;6.50;;;13.80;1.00;;;;;;6186062;23;20414;-83
2024/01/24 10:16:20;;;;;;;32.17;9.13;;;13.90;1.00;;;;;;6187220;23;20378;-83
2024/01/24 10:18:51;;;;;;;24.97;5.87;;;14.10;1.00;;;;;;6184397;23;20251;-83
2024/01/24 10:21:30;;;;;;;26.80;6.73;;;14.10;1.00;;;;;;6187137;23;20383;-83
2024/01/24 10:24:04;;;;;;;26.73;6.80;;;14.10;1.00;;;;;;6186615;23;20417;-83
2024/01/24 10:26:45;;;;;;;30.80;6.40;;;14.10;1.00;;;;;;6186697;23;20378;-84
2024/01/24 10:29:17;;;;;;;30.13;6.50;;;14.40;1.00;;;;;;6187692;23;20381;-84
2024/01/24 10:31:46;;;;;;;29.40;8.13;;;14.50;1.00;;;;;;6185910;23;20410;-83
2024/01/24 10:34:11;;;;;;;32.43;5.67;;;14.50;1.00;;;;;;6189393;23;20414;-84
2024/01/24 10:39:45;;;;;;;32.00;7.50;;;14.80;1.00;;;;;;6191189;23;20174;-84
2024/01/24 10:42:17;;;;;;;32.83;7.07;;;14.80;1.00;;;;;;6188308;23;20382;-83
2024/01/24 10:44:49;;;;;;;25.60;6.13;;;14.70;99.90;;;;;;6189024;23;20542;-83
2024/01/24 10:47:18;;;;;;;35.67;7.40;;;14.60;99.90;;;;;;6190461;23;20409;-84
2024/01/24 10:49:45;;;;;;;24.83;7.20;;;14.30;99.90;;;;;;6188366;23;20386;-84
2024/01/24 10:52:15;;;;;;;20.93;5.60;;;14.30;99.90;;;;;;6188364;23;20468;-83
2024/01/24 10:54:43;;;;;;;24.60;5.90;;;14.30;99.90;;;;;;6190474;23;20837;-83
2024/01/24 10:57:14;;;;;;;23.30;7.27;;;14.40;99.90;;;;;;6187988;23;20936;-83
2024/01/24 10:59:42;;;;;;;31.50;5.87;;;14.40;99.90;;;;;;6189058;23;20845;-82
2024/01/24 11:02:09;;;;;;;28.17;6.80;;;14.30;99.90;;;;;;6187488;23;20383;-83
2024/01/24 11:04:36;;;;;;;31.83;7.57;;;14.20;99.90;;;;;;6190279;23;20374;-83
2024/01/24 11:07:06;;;;;;;30.23;6.87;;;14.10;99.90;;;;;;6188891;23;20382;-83
2024/01/24 11:10:13;;;;;;;23.23;6.60;;;14.00;99.90;;;;;;6189851;23;20494;-83
2024/01/24 11:12:44;;;;;;;29.37;7.27;;;13.80;99.90;;;;;;6171856;23;20398;-82
2024/01/24 11:15:20;;;;;;;33.80;7.40;;;13.70;99.90;;;;;;6186769;23;20765;-84
2024/01/24 11:18:19;;;;;;;33.33;6.80;;;13.80;99.90;;;;;;6188442;23;20598;-82
2024/01/24 11:20:46;;;;;;;27.33;6.47;;;13.80;99.90;;;;;;6188552;23;20857;-84
2024/01/24 11:23:41;;;;;;;28.80;6.83;;;14.00;99.90;;;;;;6189406;23;20735;-83
2024/01/24 11:26:19;;;;;;;40.60;6.30;;;14.10;99.90;;;;;;6190083;23;20374;-82
2024/01/24 11:28:52;;;;;;;28.13;7.30;;;14.20;99.90;;;;;;6190568;23;20742;-84
2024/01/24 11:31:40;;;;;;;23.73;6.53;;;14.40;99.90;;;;;;6192199;23;20370;-85
2024/01/24 11:34:13;;;;;;;24.93;6.67;;;14.50;99.90;;;;;;6192851;23;20567;-85
2024/01/24 11:36:52;;;;;;;25.07;6.13;;;14.50;99.90;;;;;;6189134;23;20396;-87
2024/01/24 11:39:37;;;;;;;28.60;6.10;;;14.60;99.90;;;;;;6190266;23;20378;-82
2024/01/24 11:42:32;;;;;;;20.50;5.30;;;14.70;99.90;;;;;;6191557;23;20363;-84
2024/01/24 11:45:30;;;;;;;30.47;6.53;;;15.40;99.90;;;;;;6191407;23;20370;-84
2024/01/24 11:47:59;;;;;;;27.43;6.40;;;15.70;99.90;;;;;;6157126;23;20426;-84
2024/01/24 11:50:24;;;;;;;34.00;7.70;;;15.90;99.90;;;;;;6188598;23;20425;-84
2024/01/24 11:52:57;;;;;;;28.20;7.07;;;15.80;99.90;;;;;;6189010;23;20873;-84
2024/01/24 11:55:23;;;;;;;37.83;7.90;;;15.80;99.90;;;;;;6189290;23;20155;-85
2024/01/24 11:57:48;;;;;;;23.30;6.03;;;15.80;99.90;;;;;;6159628;23;20375;-85
2024/01/24 12:00:15;;;;;;;29.40;7.40;;;15.50;99.90;;;;;;6157607;23;20214;-85
2024/01/24 12:02:41;;;;;;;21.47;6.37;;;15.40;99.90;;;;;;6158705;23;20171;-85
2024/01/24 12:05:07;;;;;;;26.67;5.60;;;15.30;99.90;;;;;;6184855;23;20415;-85
2024/01/24 12:07:32;;;;;;;37.80;7.70;;;15.40;99.90;;;;;;6158987;23;20175;-85
2024/01/24 12:09:58;;;;;;;29.43;6.70;;;15.20;99.90;;;;;;6158899;23;20866;-85
2024/01/24 12:12:26;;;;;;;25.17;6.70;;;15.30;99.90;;;;;;6156962;23;20167;-84
2024/01/24 12:14:52;;;;;;;22.93;6.03;;;15.20;99.90;;;;;;6156510;23;20156;-84
2024/01/24 12:17:17;;;;;;;29.60;6.70;;;15.20;99.90;;;;;;6157051;23;20379;-85
2024/01/24 12:19:44;;;;;;;26.20;6.37;;;15.20;99.90;;;;;;6159722;23;20418;-83
2024/01/24 12:22:12;;;;;;;18.30;5.90;;;15.60;99.90;;;;;;6159290;23;20159;-82
2024/01/24 12:24:41;;;;;;;17.20;5.60;;;16.40;99.90;;;;;;6153091;23;20455;-82
2024/01/24 12:27:10;;;;;;;22.87;6.20;;;16.60;99.90;;;;;;6154566;23;20371;-82
2024/01/24 12:29:37;;;;;;;23.83;6.07;;;16.30;99.90;;;;;;6156191;23;20470;-82
2024/01/24 12:32:05;;;;;;;26.40;6.67;;;16.10;99.90;;;;;;6156383;23;20371;-82
2024/01/24 12:34:31;;;;;;;32.47;6.50;;;15.70;99.90;;;;;;6153842;23;20227;-82
2024/01/24 12:36:57;;;;;;;36.43;6.70;;;15.50;99.90;;;;;;6155451;23;20386;-82
2024/01/24 12:39:42;;;;;;;21.37;5.90;;;15.40;99.90;;;;;;6153885;23;20387;-81
2024/01/24 12:42:08;;;;;;;25.47;6.17;;;15.40;99.90;;;;;;6151842;23;20728;-82
2024/01/24 12:44:35;;;;;;;18.47;6.50;;;15.30;99.90;;;;;;6156384;23;20395;-84
2024/01/24 12:47:01;;;;;;;24.55;6.43;;;15.40;99.90;;;;;;6159245;23;20377;-84
2024/01/24 12:49:27;;;;;;;36.83;7.90;;;15.40;99.90;;;;;;6160708;23;20413;-85
2024/01/24 12:51:53;;;;;;;24.93;6.30;;;15.40;99.90;;;;;;6160856;23;20846;-84